Time;durP1;ratioP1;P1;durP2;ratioP2;P2;SDS_P1;SDS_P2;PMS_P1;PMS_P2;Temp;Humidity;BMP_temperature;BMP_pressure;BME280_temperature;BME280_humidity;BME280_pressure;Samples;Min_cycle;Max_cycle;Signal;HPM_P1;HPM_P2
2022/01/07 00:01:42;;;;;;;28.23;13.30;;;;;;;;;;5115487;28;20094;-66
2022/01/07 00:04:08;;;;;;;26.02;13.63;;;;;;;;;;5115155;28;20051;-66
2022/01/07 00:06:34;;;;;;;29.52;15.05;;;;;;;;;;5116322;27;20039;-66
2022/01/07 00:09:01;;;;;;;33.83;14.52;;;;;;;;;;5128949;28;20023;-65
2022/01/07 00:11:27;;;;;;;28.40;14.73;;;;;;;;;;5133468;28;20059;-67
2022/01/07 00:13:53;;;;;;;32.45;15.43;;;;;;;;;;5132708;28;20050;-67
2022/01/07 00:16:19;;;;;;;30.23;15.20;;;;;;;;;;5126611;28;20038;-66
2022/01/07 00:18:45;;;;;;;31.08;15.02;;;;;;;;;;5119808;28;20027;-65
2022/01/07 00:21:11;;;;;;;25.98;13.68;;;;;;;;;;5115961;28;20038;-65
2022/01/07 00:23:37;;;;;;;34.63;15.02;;;;;;;;;;5115488;28;20031;-63
2022/01/07 00:26:04;;;;;;;30.92;15.65;;;;;;;;;;5115082;28;20032;-65
2022/01/07 00:28:30;;;;;;;35.97;16.13;;;;;;;;;;5114738;28;20028;-65
2022/01/07 00:30:56;;;;;;;34.97;16.48;;;;;;;;;;5115412;28;20027;-66
2022/01/07 00:33:22;;;;;;;38.90;18.15;;;;;;;;;;5094782;28;20111;-66
2022/01/07 00:35:48;;;;;;;42.10;18.88;;;;;;;;;;5094504;28;20466;-66
2022/01/07 00:38:14;;;;;;;41.28;20.02;;;;;;;;;;5093707;28;20416;-65
2022/01/07 00:40:40;;;;;;;41.10;19.85;;;;;;;;;;5096630;28;20085;-65
2022/01/07 00:43:06;;;;;;;46.85;19.58;;;;;;;;;;5114735;27;20385;-66
2022/01/07 00:45:33;;;;;;;42.25;19.10;;;;;;;;;;5114660;28;20381;-65
2022/01/07 00:47:59;;;;;;;39.80;20.38;;;;;;;;;;5113015;28;20046;-65
2022/01/07 00:50:27;;;;;;;39.40;18.92;;;;;;;;;;5112756;28;20432;-66
2022/01/07 00:52:53;;;;;;;35.40;17.40;;;;;;;;;;5114444;28;20124;-65
2022/01/07 00:55:19;;;;;;;39.08;19.85;;;;;;;;;;5114570;28;20035;-66
2022/01/07 00:57:45;;;;;;;36.22;18.42;;;;;;;;;;5114071;28;20481;-65
2022/01/07 01:00:13;;;;;;;34.92;18.67;;;;;;;;;;5091066;28;20492;-64
2022/01/07 01:02:39;;;;;;;38.53;18.13;;;;;;;;;;5077111;28;20068;-65
2022/01/07 01:05:06;;;;;;;43.72;17.88;;;;;;;;;;5073688;28;20035;-66
2022/01/07 01:07:32;;;;;;;38.88;16.83;;;;;;;;;;5073130;28;20067;-65
2022/01/07 01:09:58;;;;;;;39.03;17.15;;;;;;;;;;5087467;28;20109;-66
2022/01/07 01:12:24;;;;;;;32.05;16.08;;;;;;;;;;5113780;28;20068;-65
2022/01/07 01:14:50;;;;;;;32.70;16.05;;;;;;;;;;5114009;28;20023;-64
2022/01/07 01:17:16;;;;;;;33.35;16.27;;;;;;;;;;5113952;28;20034;-66
2022/01/07 01:19:42;;;;;;;34.15;16.85;;;;;;;;;;5113294;28;20016;-66
2022/01/07 01:22:09;;;;;;;29.10;15.25;;;;;;;;;;5113616;28;20087;-66
2022/01/07 01:24:35;;;;;;;33.80;15.55;;;;;;;;;;5114028;28;20027;-65
2022/01/07 01:27:01;;;;;;;26.05;15.93;;;;;;;;;;5113643;28;20053;-64
2022/01/07 01:29:28;;;;;;;37.25;16.25;;;;;;;;;;5113073;28;20508;-65
2022/01/07 01:31:54;;;;;;;36.35;16.17;;;;;;;;;;5113973;28;20393;-65
2022/01/07 01:34:20;;;;;;;42.25;16.73;;;;;;;;;;5113070;28;20071;-65
2022/01/07 01:36:46;;;;;;;29.33;15.73;;;;;;;;;;5119377;28;20032;-66
2022/01/07 01:39:12;;;;;;;29.17;16.58;;;;;;;;;;5118954;28;20028;-65
2022/01/07 01:41:39;;;;;;;29.35;16.27;;;;;;;;;;5092854;28;20096;-66
2022/01/07 01:44:06;;;;;;;26.63;15.60;;;;;;;;;;5091969;28;20425;-65
2022/01/07 01:46:32;;;;;;;40.92;17.67;;;;;;;;;;5093685;28;20028;-65
2022/01/07 01:48:58;;;;;;;39.08;18.40;;;;;;;;;;5113990;28;20061;-65
2022/01/07 01:51:24;;;;;;;37.10;18.25;;;;;;;;;;5112401;28;20114;-65
2022/01/07 01:53:50;;;;;;;50.72;18.42;;;;;;;;;;5091523;28;20020;-65
2022/01/07 01:56:16;;;;;;;38.53;18.83;;;;;;;;;;5093096;28;20026;-65
2022/01/07 01:58:42;;;;;;;40.67;17.70;;;;;;;;;;5091961;28;20020;-65
2022/01/07 02:01:08;;;;;;;33.38;17.88;;;;;;;;;;5092865;28;20490;-65
2022/01/07 02:03:35;;;;;;;37.65;18.75;;;;;;;;;;5092944;28;20043;-65
2022/01/07 02:06:01;;;;;;;33.42;18.50;;;;;;;;;;5109110;28;20120;-66
2022/01/07 02:08:27;;;;;;;34.60;17.48;;;;;;;;;;5111940;28;20032;-66
2022/01/07 02:10:55;;;;;;;35.65;18.48;;;;;;;;;;5111995;28;20036;-65
2022/01/07 02:13:23;;;;;;;38.55;18.80;;;;;;;;;;5113329;28;20104;-65
2022/01/07 02:15:50;;;;;;;40.50;20.55;;;;;;;;;;5116931;28;20078;-66
2022/01/07 02:18:19;;;;;;;31.45;17.38;;;;;;;;;;5115562;28;20474;-66
2022/01/07 02:20:45;;;;;;;33.05;18.35;;;;;;;;;;5113234;28;20026;-66
2022/01/07 02:23:11;;;;;;;32.72;17.65;;;;;;;;;;5119534;28;20024;-65
2022/01/07 02:25:37;;;;;;;41.88;19.35;;;;;;;;;;5119954;28;20019;-66
2022/01/07 02:28:04;;;;;;;33.90;18.52;;;;;;;;;;5116762;27;20391;-64
2022/01/07 02:30:30;;;;;;;34.78;18.73;;;;;;;;;;5112286;28;20027;-66
2022/01/07 02:32:57;;;;;;;33.67;18.35;;;;;;;;;;5112410;28;20027;-65
2022/01/07 02:35:25;;;;;;;35.28;18.88;;;;;;;;;;5111008;28;20675;-66
2022/01/07 02:37:51;;;;;;;32.47;17.85;;;;;;;;;;5112275;28;20024;-66
2022/01/07 02:40:17;;;;;;;38.13;20.10;;;;;;;;;;5111865;28;20035;-66
2022/01/07 02:42:44;;;;;;;39.90;17.77;;;;;;;;;;5110978;28;20024;-65
2022/01/07 02:45:11;;;;;;;36.60;17.98;;;;;;;;;;5112559;27;20153;-65
2022/01/07 02:47:49;;;;;;;34.67;17.77;;;;;;;;;;5123249;28;20027;-65
2022/01/07 02:50:17;;;;;;;31.58;17.52;;;;;;;;;;5111679;28;20024;-66
2022/01/07 02:52:43;;;;;;;35.95;18.20;;;;;;;;;;5112325;28;20055;-66
2022/01/07 02:55:09;;;;;;;40.25;19.10;;;;;;;;;;5112088;28;20034;-65
2022/01/07 02:57:35;;;;;;;35.75;18.00;;;;;;;;;;5112111;28;20046;-66
2022/01/07 03:00:02;;;;;;;34.42;18.25;;;;;;;;;;5109973;28;20477;-66
2022/01/07 03:02:28;;;;;;;31.85;17.88;;;;;;;;;;5112025;28;20505;-66
2022/01/07 03:04:54;;;;;;;34.17;18.65;;;;;;;;;;5111528;28;20032;-65
2022/01/07 03:07:20;;;;;;;34.65;17.65;;;;;;;;;;5111582;28;20043;-65
2022/01/07 03:09:46;;;;;;;33.03;17.52;;;;;;;;;;5109827;28;20028;-65
2022/01/07 03:12:12;;;;;;;33.33;17.52;;;;;;;;;;5111585;28;20031;-65
2022/01/07 03:14:38;;;;;;;28.50;17.08;;;;;;;;;;5111704;28;20019;-65
2022/01/07 03:17:04;;;;;;;35.42;17.90;;;;;;;;;;5111588;28;20484;-64
2022/01/07 03:19:30;;;;;;;32.08;16.85;;;;;;;;;;5110937;28;20030;-66
2022/01/07 03:21:56;;;;;;;33.17;16.45;;;;;;;;;;5110092;28;20398;-64
2022/01/07 03:24:22;;;;;;;28.85;15.73;;;;;;;;;;5111798;28;20028;-64
2022/01/07 03:26:48;;;;;;;28.17;15.02;;;;;;;;;;5111512;28;20034;-64
2022/01/07 03:29:14;;;;;;;34.10;15.65;;;;;;;;;;5110326;28;20053;-64
2022/01/07 03:31:40;;;;;;;29.27;16.00;;;;;;;;;;5111272;28;20039;-65
2022/01/07 03:34:08;;;;;;;31.75;15.23;;;;;;;;;;5111494;28;20044;-66
2022/01/07 03:36:34;;;;;;;28.83;15.15;;;;;;;;;;5111526;28;20019;-65
2022/01/07 03:39:01;;;;;;;32.08;16.05;;;;;;;;;;5110819;28;20030;-65
2022/01/07 03:41:28;;;;;;;29.50;16.67;;;;;;;;;;5110732;28;20382;-65
2022/01/07 03:43:54;;;;;;;33.83;15.63;;;;;;;;;;5112676;28;20035;-64
2022/01/07 03:46:20;;;;;;;42.42;18.17;;;;;;;;;;5112064;28;20031;-67
2022/01/07 03:48:46;;;;;;;31.58;16.60;;;;;;;;;;5111129;28;20430;-66
2022/01/07 03:51:12;;;;;;;28.73;15.32;;;;;;;;;;5112308;28;20020;-66
2022/01/07 03:53:39;;;;;;;30.30;16.08;;;;;;;;;;5111939;28;20110;-66
2022/01/07 03:56:05;;;;;;;34.78;16.80;;;;;;;;;;5112660;28;20028;-66
2022/01/07 03:58:31;;;;;;;30.02;16.83;;;;;;;;;;5111358;28;20027;-65
2022/01/07 04:00:57;;;;;;;31.33;17.45;;;;;;;;;;5111330;28;20145;-65
2022/01/07 04:03:23;;;;;;;32.33;16.83;;;;;;;;;;5111216;28;20019;-65
2022/01/07 04:05:49;;;;;;;34.38;18.30;;;;;;;;;;5111265;28;20542;-65
2022/01/07 04:08:15;;;;;;;40.28;17.05;;;;;;;;;;5110375;28;20097;-68
2022/01/07 04:10:41;;;;;;;35.17;17.17;;;;;;;;;;5110906;28;20477;-66
2022/01/07 04:13:07;;;;;;;28.63;15.88;;;;;;;;;;5111350;28;20024;-66
2022/01/07 04:15:34;;;;;;;25.88;15.43;;;;;;;;;;5108557;28;20030;-65
2022/01/07 04:18:00;;;;;;;29.90;15.80;;;;;;;;;;5110730;28;20051;-64
2022/01/07 04:20:27;;;;;;;34.78;15.73;;;;;;;;;;5110647;28;20104;-65
2022/01/07 04:22:54;;;;;;;34.80;17.23;;;;;;;;;;5110923;28;20434;-64
2022/01/07 04:25:21;;;;;;;37.15;16.23;;;;;;;;;;5110883;28;20023;-64
2022/01/07 04:28:04;;;;;;;29.55;15.77;;;;;;;;;;5110738;28;20485;-64
2022/01/07 04:30:31;;;;;;;32.05;16.38;;;;;;;;;;5109500;28;20043;-64
2022/01/07 04:32:58;;;;;;;27.27;16.92;;;;;;;;;;5111191;28;20028;-65
2022/01/07 04:35:25;;;;;;;35.08;16.40;;;;;;;;;;5112889;28;20442;-65
2022/01/07 04:37:52;;;;;;;32.58;16.35;;;;;;;;;;5114201;27;20077;-66
2022/01/07 04:40:18;;;;;;;30.27;17.15;;;;;;;;;;5112862;28;20034;-65
2022/01/07 04:42:45;;;;;;;31.23;16.05;;;;;;;;;;5114736;27;20371;-65
2022/01/07 04:45:11;;;;;;;29.73;16.45;;;;;;;;;;5115006;28;20031;-66
2022/01/07 04:47:37;;;;;;;35.78;16.67;;;;;;;;;;5114882;28;20481;-65
2022/01/07 04:50:05;;;;;;;29.48;15.57;;;;;;;;;;5118456;28;20031;-64
2022/01/07 04:52:31;;;;;;;26.92;15.40;;;;;;;;;;5118195;28;20036;-65
2022/01/07 04:54:57;;;;;;;28.92;16.20;;;;;;;;;;5116546;28;20028;-65
2022/01/07 04:57:23;;;;;;;31.50;16.23;;;;;;;;;;5114251;28;20454;-66
2022/01/07 04:59:49;;;;;;;32.13;17.17;;;;;;;;;;5113856;28;20062;-66
2022/01/07 05:02:19;;;;;;;29.35;16.33;;;;;;;;;;5114227;27;20023;-63
2022/01/07 05:04:45;;;;;;;30.88;16.65;;;;;;;;;;5114634;27;20032;-65
2022/01/07 05:07:11;;;;;;;26.50;15.32;;;;;;;;;;5113823;28;20074;-65
2022/01/07 05:09:37;;;;;;;32.20;16.02;;;;;;;;;;5124199;28;20648;-67
2022/01/07 05:12:03;;;;;;;30.02;15.25;;;;;;;;;;5133528;28;20087;-66
2022/01/07 05:14:29;;;;;;;30.90;15.48;;;;;;;;;;5118729;28;20031;-65
2022/01/07 05:16:56;;;;;;;30.73;16.23;;;;;;;;;;5120893;28;20441;-65
2022/01/07 05:19:22;;;;;;;29.35;16.13;;;;;;;;;;5115818;27;20026;-65
2022/01/07 05:21:48;;;;;;;27.75;15.93;;;;;;;;;;5116558;28;20024;-67
2022/01/07 05:24:14;;;;;;;29.00;15.82;;;;;;;;;;5117160;28;20031;-66
2022/01/07 05:26:40;;;;;;;27.73;14.65;;;;;;;;;;5115566;28;20019;-65
2022/01/07 05:29:06;;;;;;;28.20;14.70;;;;;;;;;;5112902;28;20389;-66
2022/01/07 05:31:32;;;;;;;27.40;14.55;;;;;;;;;;5113984;28;20028;-65
2022/01/07 05:33:58;;;;;;;24.58;14.15;;;;;;;;;;5114139;28;20096;-63
2022/01/07 05:36:24;;;;;;;31.10;13.70;;;;;;;;;;5112107;28;20432;-66
2022/01/07 05:38:50;;;;;;;28.33;14.57;;;;;;;;;;5112919;28;20043;-66
2022/01/07 05:41:16;;;;;;;29.90;14.13;;;;;;;;;;5113230;27;20072;-65
2022/01/07 05:43:43;;;;;;;25.73;13.00;;;;;;;;;;5113046;28;20479;-65
2022/01/07 05:46:11;;;;;;;23.60;13.18;;;;;;;;;;5112224;28;20046;-65
2022/01/07 05:48:37;;;;;;;27.38;13.75;;;-1.10;99.90;;;;;;5092281;28;20059;-65
2022/01/07 05:51:05;;;;;;;34.03;14.55;;;;;;;;;;5092885;28;20055;-68
2022/01/07 05:53:30;;;;;;;26.00;13.75;;;-1.80;99.90;;;;;;5095622;28;20101;-73
2022/01/07 05:55:56;;;;;;;29.98;13.57;;;-2.30;99.90;;;;;;5099897;28;20494;-73
2022/01/07 06:48:06;;;;;;;25.55;13.57;;;-1.40;99.90;;;;;;5082315;28;20044;-72
2022/01/07 06:50:32;;;;;;;24.98;13.73;;;;;;;;;;5090728;28;20040;-73
2022/01/07 06:52:58;;;;;;;28.25;13.80;;;-0.80;99.90;;;;;;5096555;28;20028;-75
2022/01/07 06:55:24;;;;;;;27.80;15.63;;;-1.40;99.90;;;;;;5074039;28;20051;-73
2022/01/07 06:57:49;;;;;;;25.65;14.10;;;-1.20;99.90;;;;;;5076420;28;20028;-81
2022/01/07 07:00:16;;;;;;;26.92;13.90;;;-1.50;99.90;;;;;;5084042;28;20028;-81
2022/01/07 07:02:41;;;;;;;26.02;13.50;;;-0.30;99.90;;;;;;5091748;28;20029;-82
2022/01/07 07:05:07;;;;;;;22.58;13.05;;;-1.00;99.90;;;;;;5088846;28;20043;-81
2022/01/07 07:07:33;;;;;;;25.00;13.68;;;-1.60;99.90;;;;;;5083708;28;20012;-81
2022/01/07 07:09:58;;;;;;;26.10;13.32;;;-0.60;99.90;;;;;;5069138;28;20182;-73
2022/01/07 07:12:24;;;;;;;27.73;13.73;;;-0.50;99.90;;;;;;5070811;28;20033;-72
2022/01/07 07:14:50;;;;;;;28.05;13.38;;;;;;;;;;5071450;28;20025;-71
2022/01/07 07:17:16;;;;;;;23.10;12.07;;;;;;;;;;5071254;28;20024;-71
2022/01/07 07:19:42;;;;;;;23.75;12.50;;;-1.10;99.90;;;;;;5076011;28;20046;-71
2022/01/07 07:22:08;;;;;;;29.42;13.10;;;-1.40;99.90;;;;;;5092202;28;20039;-71
2022/01/07 07:24:33;;;;;;;28.17;13.15;;;-0.80;99.90;;;;;;5112684;28;20036;-71
2022/01/07 07:26:59;;;;;;;29.65;13.77;;;-1.40;99.90;;;;;;5111394;28;20485;-72
2022/01/07 07:29:25;;;;;;;27.45;13.32;;;-2.90;99.90;;;;;;5111017;28;20111;-72
2022/01/07 07:31:55;;;;;;;23.38;12.35;;;-1.00;99.90;;;;;;5110049;28;20099;-73
2022/01/07 07:37:05;;;;;;;25.27;13.43;;;;;;;;;;5111029;28;20047;-74
2022/01/07 07:39:32;;;;;;;23.15;12.95;;;-0.90;99.90;;;;;;5111136;28;20378;-74
2022/01/07 07:41:57;;;;;;;25.00;12.63;;;-0.90;99.90;;;;;;5112086;28;20081;-74
2022/01/07 07:44:23;;;;;;;24.13;13.75;;;-1.20;99.90;;;;;;5112574;28;20023;-74
2022/01/07 07:46:49;;;;;;;26.63;14.30;;;-0.90;99.90;;;;;;5112203;28;20422;-73
2022/01/07 07:49:15;;;;;;;29.40;13.88;;;-0.40;99.90;;;;;;5125753;28;20081;-74
2022/01/07 07:51:41;;;;;;;31.85;16.13;;;-1.60;99.90;;;;;;5128041;28;20093;-74
2022/01/07 07:54:14;;;;;;;30.50;15.65;;;;;;;;;;5114637;28;20024;-75
2022/01/07 07:56:40;;;;;;;27.65;14.57;;;;;;;;;;5113826;28;20032;-74
2022/01/07 07:59:05;;;;;;;25.58;13.95;;;1.40;99.90;;;;;;5114150;28;20028;-74
2022/01/07 08:01:32;;;;;;;25.15;13.60;;;;;;;;;;5101617;28;20028;-74
2022/01/07 08:03:57;;;;;;;27.80;15.07;;;1.40;99.90;;;;;;5092358;28;20024;-73
2022/01/07 08:06:23;;;;;;;20.80;12.00;;;3.40;99.90;;;;;;5089973;28;20032;-74
2022/01/07 08:08:49;;;;;;;18.05;11.52;;;;;;;;;;5093113;28;20482;-74
2022/01/07 08:11:16;;;;;;;15.05;9.45;;;4.70;99.90;;;;;;5095065;28;20052;-71
2022/01/07 08:16:26;;;;;;;13.95;9.52;;;4.40;99.90;;;;;;5095455;28;20105;-70
2022/01/07 08:18:54;;;;;;;18.77;11.00;;;3.00;99.90;;;;;;5094070;28;20066;-71
2022/01/07 08:21:20;;;;;;;13.35;8.95;;;;;;;;;;5093635;28;20057;-71
2022/01/07 08:23:46;;;;;;;15.98;10.48;;;1.80;99.90;;;;;;5112637;28;20035;-72
2022/01/07 08:26:14;;;;;;;25.45;18.25;;;;;;;;;;5115674;28;20038;-71
2022/01/07 08:28:50;;;;;;;43.17;31.95;;;;;;;;;;5115120;28;20036;-72
2022/01/07 08:36:43;;;;;;;18.02;10.50;;;-0.30;99.90;;;;;;5119844;28;20114;-70
2022/01/07 08:39:09;;;;;;;19.30;10.95;;;;;;;;;;5113915;27;20076;-71
2022/01/07 08:41:37;;;;;;;17.48;10.98;;;1.10;99.90;;;;;;5088821;28;20039;-71
2022/01/07 08:44:03;;;;;;;19.45;11.25;;;;;;;;;;5096856;28;20031;-71
2022/01/07 08:46:29;;;;;;;17.42;11.15;;;1.20;99.90;;;;;;5094646;28;20028;-71
2022/01/07 08:48:55;;;;;;;18.23;12.05;;;;;;;;;;5093746;28;20028;-69
2022/01/07 08:51:21;;;;;;;19.98;11.43;;;1.20;99.90;;;;;;5093900;28;20122;-66
2022/01/07 08:53:46;;;;;;;19.88;11.10;;;1.10;99.90;;;;;;5108650;28;20022;-68
2022/01/07 08:56:12;;;;;;;17.48;11.57;;;1.20;99.90;;;;;;5094149;28;20020;-67
2022/01/07 08:58:37;;;;;;;18.98;11.57;;;0.20;99.90;;;;;;5092590;28;20035;-66
2022/01/07 09:01:04;;;;;;;16.92;10.82;;;;;;;;;;5093537;28;20032;-66
2022/01/07 09:03:30;;;;;;;21.40;12.00;;;;;;;;;;5093752;28;20020;-66
2022/01/07 09:05:56;;;;;;;22.90;12.10;;;;;;;;;;5093971;28;20394;-65
2022/01/07 09:08:22;;;;;;;17.73;13.02;;;;;;;;;;5092926;28;20029;-66
2022/01/07 09:10:48;;;;;;;19.17;13.15;;;;;;;;;;5094039;28;20031;-65
2022/01/07 09:13:15;;;;;;;21.33;12.05;;;;;;;;;;5093292;28;20656;-66
2022/01/07 09:15:41;;;;;;;17.02;11.45;;;;;;;;;;5093679;28;20028;-67
2022/01/07 09:18:10;;;;;;;16.85;11.63;;;;;;;;;;5092987;28;20061;-66
2022/01/07 09:20:40;;;;;;;21.20;11.73;;;;;;;;;;5090830;28;20122;-67
2022/01/07 09:23:07;;;;;;;19.35;11.50;;;2.30;99.90;;;;;;5106953;28;20028;-67
2022/01/07 09:25:33;;;;;;;18.67;11.70;;;;;;;;;;5113605;28;20114;-63
2022/01/07 09:27:59;;;;;;;19.77;12.80;;;;;;;;;;5113599;28;20039;-63
2022/01/07 09:30:25;;;;;;;20.85;11.82;;;;;;;;;;5113202;28;20035;-62
2022/01/07 09:32:51;;;;;;;23.27;12.48;;;;;;;;;;5113753;28;20038;-65
2022/01/07 09:35:17;;;;;;;20.30;12.57;;;;;;;;;;5113503;28;20107;-74
2022/01/07 09:37:43;;;;;;;23.25;13.45;;;;;;;;;;5112206;28;20509;-66
2022/01/07 09:40:10;;;;;;;20.02;12.43;;;;;;;;;;5083232;28;20029;-64
2022/01/07 09:42:36;;;;;;;22.10;12.77;;;;;;;;;;5080964;28;20478;-65
2022/01/07 09:45:03;;;;;;;22.83;13.35;;;;;;;;;;5082268;28;20111;-64
2022/01/07 09:47:29;;;;;;;21.67;12.77;;;;;;;;;;5082204;28;20036;-65
2022/01/07 09:49:55;;;;;;;23.92;12.18;;;0.90;99.90;;;;;;5079728;28;20518;-65
2022/01/07 09:52:21;;;;;;;19.45;12.55;;;;;;;;;;5083116;28;20046;-64
2022/01/07 09:54:48;;;;;;;21.35;12.07;;;;;;;;;;5082291;28;20069;-64
2022/01/07 09:57:14;;;;;;;23.33;12.13;;;;;;;;;;5089594;28;20359;-62
2022/01/07 09:59:40;;;;;;;18.02;11.70;;;;;;;;;;5092002;28;20032;-63
2022/01/07 10:02:09;;;;;;;18.17;11.50;;;;;;;;;;5092687;28;20032;-62
2022/01/07 10:04:40;;;;;;;27.20;13.07;;;;;;;;;;5092744;28;20036;-67
2022/01/07 10:07:10;;;;;;;18.77;10.38;;;;;;;;;;5079620;28;20096;-65
2022/01/07 10:09:36;;;;;;;16.58;11.23;;;;;;;;;;5071870;28;20029;-63
2022/01/07 10:12:03;;;;;;;18.85;11.60;;;;;;;;;;5072369;28;20086;-62
2022/01/07 10:14:30;;;;;;;17.35;11.75;;;;;;;;;;5072297;28;20029;-63
2022/01/07 10:17:00;;;;;;;15.57;11.20;;;;;;;;;;5072182;28;20037;-64
2022/01/07 10:19:29;;;;;;;19.48;11.50;;;;;;;;;;5071479;28;20509;-63
2022/01/07 10:21:59;;;;;;;20.52;11.90;;;;;;;;;;5085555;28;20092;-68
2022/01/07 10:24:25;;;;;;;19.80;12.02;;;;;;;;;;5081154;28;20085;-79
2022/01/07 10:27:10;;;;;;;17.02;10.77;;;;;;;;;;5093443;28;20036;-75
2022/01/07 10:29:40;;;;;;;13.07;9.40;;;;;;;;;;5102939;28;20044;-73
2022/01/07 10:32:24;;;;;;;15.07;9.82;;;;;;;;;;5077094;28;20442;-70
2022/01/07 10:35:29;;;;;;;15.43;9.25;;;;;;;;;;5072336;28;20024;-70
2022/01/07 10:37:57;;;;;;;15.65;8.95;;;;;;;;;;5068907;28;20025;-69
2022/01/07 10:40:23;;;;;;;15.73;9.18;;;;;;;;;;5068655;28;20092;-70
2022/01/07 10:42:50;;;;;;;18.08;10.55;;;;;;;;;;5070543;28;20399;-73
2022/01/07 10:45:17;;;;;;;21.13;10.95;;;;;;;;;;5087492;28;20631;-77
2022/01/07 10:47:48;;;;;;;19.25;10.70;;;;;;;;;;5079991;28;20013;-77
2022/01/07 10:50:24;;;;;;;22.40;12.50;;;;;;;;;;5071594;28;20028;-73
2022/01/07 10:52:50;;;;;;;16.42;11.57;;;;;;;;;;5094533;28;20034;-74
2022/01/07 10:55:20;;;;;;;18.25;11.77;;;;;;;;;;5095649;28;20087;-73
2022/01/07 10:57:48;;;;;;;17.27;10.68;;;;;;;;;;5092030;28;20028;-74
2022/01/07 11:00:16;;;;;;;17.52;10.18;;;;;;;;;;5091222;28;20020;-74
2022/01/07 11:02:42;;;;;;;31.00;14.98;;;;;;;;;;5091528;28;20024;-73
2022/01/07 11:05:09;;;;;;;20.38;12.15;;;;;;;;;;5091759;28;20080;-73
2022/01/07 11:07:35;;;;;;;20.77;12.95;;;;;;;;;;5091130;28;20028;-73
2022/01/07 11:10:03;;;;;;;18.65;12.32;;;;;;;;;;5095197;28;20099;-73
2022/01/07 11:12:30;;;;;;;22.00;13.52;;;;;;;;;;5092281;28;20038;-73
2022/01/07 11:14:57;;;;;;;22.27;13.30;;;;;;;;;;5091826;28;20482;-74
2022/01/07 11:17:23;;;;;;;18.13;12.63;;;;;;;;;;5090008;28;20112;-74
2022/01/07 11:19:52;;;;;;;18.85;12.85;;;;;;;;;;5090919;28;20024;-74
2022/01/07 11:22:19;;;;;;;19.63;12.35;;;;;;;;;;5097203;28;20089;-74
2022/01/07 11:24:47;;;;;;;21.70;13.60;;;;;;;;;;5111876;28;20028;-73
2022/01/07 11:27:18;;;;;;;18.10;11.73;;;;;;;;;;5089263;28;20039;-77
2022/01/07 11:30:10;;;;;;;20.88;12.30;;;;;;;;;;5080529;28;20045;-76
2022/01/07 11:32:47;;;;;;;18.75;10.80;;;;;;;;;;5080446;28;20020;-76
2022/01/07 11:35:19;;;;;;;17.55;10.85;;;;;;;;;;5080183;28;20025;-77
2022/01/07 11:37:45;;;;;;;18.10;11.10;;;;;;;;;;5078747;28;20021;-76
2022/01/07 11:40:27;;;;;;;17.55;10.50;;;;;;;;;;5079322;28;20028;-76
2022/01/07 11:42:53;;;;;;;17.17;10.60;;;;;;;;;;5079759;28;20025;-77
2022/01/07 11:45:29;;;;;;;16.20;11.13;;;;;;;;;;5079236;28;20020;-77
2022/01/07 11:48:15;;;;;;;17.27;10.13;;;;;;;;;;5080195;28;20020;-77
2022/01/07 11:50:48;;;;;;;17.80;9.70;;;;;;;;;;5081019;28;20036;-77
2022/01/07 11:53:14;;;;;;;14.32;9.70;;;;;;;;;;5083573;28;20505;-76
2022/01/07 11:55:41;;;;;;;14.70;10.00;;;;;;;;;;5081065;28;20049;-77
2022/01/07 11:58:07;;;;;;;13.23;9.68;;;;;;;;;;5078695;28;20802;-76
2022/01/07 12:00:51;;;;;;;13.90;8.93;;;;;;;;;;5079178;28;20021;-76
2022/01/07 12:03:41;;;;;;;11.27;7.97;;;;;;;;;;5080513;28;20014;-76
2022/01/07 12:06:31;;;;;;;9.85;7.15;;;;;;;;;;5080851;28;20028;-77
2022/01/07 12:09:05;;;;;;;7.93;5.85;;;;;;;;;;5079930;28;20028;-77
2022/01/07 12:11:33;;;;;;;7.60;5.45;;;3.30;99.90;;;;;;5073288;28;20029;-74
2022/01/07 12:14:00;;;;;;;10.07;5.55;;;;;;;;;;5070958;28;20021;-78
2022/01/07 12:16:26;;;;;;;7.80;4.95;;;;;;;;;;5070829;28;20032;-77
2022/01/07 12:19:01;;;;;;;8.10;5.80;;;3.50;99.90;;;;;;5073088;28;20020;-75
2022/01/07 12:21:27;;;;;;;9.70;5.43;;;;;;;;;;5079651;28;20021;-77
2022/01/07 12:24:10;;;;;;;7.07;5.00;;;;;;;;;;5083114;28;20151;-77
2022/01/07 12:26:36;;;;;;;8.55;5.32;;;;;;;;;;5077292;28;20016;-77
2022/01/07 12:29:03;;;;;;;7.93;4.65;;;;;;;;;;5081164;28;20115;-77
2022/01/07 12:31:29;;;;;;;9.82;5.20;;;;;;;;;;5087889;28;20138;-81
2022/01/07 12:33:56;;;;;;;8.52;4.90;;;;;;;;;;5081888;28;20051;-78
2022/01/07 12:36:35;;;;;;;7.03;4.72;;;4.40;99.90;;;;;;5082761;28;20386;-79
2022/01/07 12:39:09;;;;;;;6.45;4.30;;;;;;;;;;5082468;28;20024;-77
2022/01/07 12:41:38;;;;;;;7.35;4.78;;;;;;;;;;5084276;28;20035;-79
2022/01/07 12:44:08;;;;;;;10.23;4.30;;;;;;;;;;5085124;28;20050;-79
2022/01/07 12:46:35;;;;;;;5.78;4.28;;;;;;;;;;5090446;28;20029;-78
2022/01/07 12:49:00;;;;;;;8.40;4.50;;;4.20;99.90;;;;;;5094121;28;20024;-80
2022/01/07 12:51:29;;;;;;;9.73;4.82;;;;;;;;;;5097640;28;20037;-79
2022/01/07 12:54:00;;;;;;;6.55;4.53;;;;;;;;;;5092649;28;20061;-78
2022/01/07 12:56:30;;;;;;;8.85;4.82;;;;;;;;;;5092411;28;20082;-79
2022/01/07 12:58:57;;;;;;;7.68;5.03;;;;;;;;;;5084300;28;20036;-74
2022/01/07 13:01:31;;;;;;;6.38;4.35;;;;;;;;;;5094337;28;20021;-78
2022/01/07 13:04:00;;;;;;;6.63;4.30;;;;;;;;;;5089734;28;20032;-69
2022/01/07 13:06:27;;;;;;;6.43;4.63;;;4.40;99.90;;;;;;5086726;28;20058;-81
2022/01/07 13:08:53;;;;;;;7.80;4.90;;;;;;;;;;5093255;28;20553;-74
2022/01/07 13:11:19;;;;;;;9.38;4.85;;;;;;;;;;5105660;28;20114;-72
2022/01/07 13:13:45;;;;;;;8.57;5.15;;;;;;;;;;5114469;28;20489;-71
2022/01/07 13:16:11;;;;;;;9.32;5.65;;;;;;;;;;5113991;28;20508;-71
2022/01/07 13:18:43;;;;;;;8.13;5.30;;;;;;;;;;5113375;28;20028;-69
2022/01/07 13:21:10;;;;;;;7.80;5.25;;;5.30;99.90;;;;;;5114237;27;20032;-71
2022/01/07 13:23:36;;;;;;;8.43;5.40;;;;;;;;;;5113952;28;20473;-72
2022/01/07 13:26:03;;;;;;;8.27;6.15;;;;;;;;;;5112529;28;20084;-73
2022/01/07 13:28:29;;;;;;;8.18;5.53;;;;;;;;;;5113371;28;20028;-73
2022/01/07 13:30:56;;;;;;;11.15;6.65;;;;;;;;;;5113816;28;20024;-72
2022/01/07 13:33:25;;;;;;;8.65;5.93;;;;;;;;;;5113486;28;20414;-72
2022/01/07 13:36:02;;;;;;;6.07;5.30;;;5.00;99.90;;;;;;5113942;28;20030;-72
2022/01/07 13:38:28;;;;;;;9.18;5.32;;;3.80;99.90;;;;;;5112878;28;20030;-74
2022/01/07 13:41:03;;;;;;;10.63;5.43;;;;;;;;;;5104189;28;20024;-72
2022/01/07 13:43:31;;;;;;;7.10;5.40;;;;;;;;;;5093588;28;20020;-73
2022/01/07 13:46:09;;;;;;;12.32;5.95;;;;;;;;;;5105756;28;20024;-76
2022/01/07 13:48:47;;;;;;;6.75;4.43;;;;;;;;;;5135297;28;20056;-77
2022/01/07 13:51:13;;;;;;;7.15;4.88;;;;;;;;;;5135254;28;20032;-77
2022/01/07 13:53:38;;;;;;;6.70;5.28;;;4.40;99.90;;;;;;5127260;28;20079;-74
2022/01/07 13:56:09;;;;;;;7.43;4.75;;;;;;;;;;5078795;28;20584;-73
2022/01/07 13:58:35;;;;;;;6.70;5.15;;;;;;;;;;5084816;28;20020;-73
2022/01/07 14:01:08;;;;;;;5.50;4.05;;;;;;;;;;5075696;28;20560;-74
2022/01/07 14:03:51;;;;;;;8.30;4.28;;;;;;;;;;5071350;28;20032;-72
2022/01/07 14:06:21;;;;;;;9.13;4.97;;;3.70;99.90;;;;;;5072256;28;20024;-77
2022/01/07 14:08:48;;;;;;;5.78;3.90;;;;;;;;;;5071667;28;20024;-77
2022/01/07 14:11:14;;;;;;;6.72;4.30;;;;;;;;;;5084069;28;20086;-77
2022/01/07 14:16:09;;;;;;;7.55;5.10;;;;;;;;;;5067797;22;20136;-71
2022/01/07 14:18:36;;;;;;;9.48;4.78;;;3.80;99.90;;;;;;5051726;28;20094;-71
2022/01/07 14:21:06;;;;;;;9.88;5.07;;;;;;;;;;5052243;28;20021;-71
2022/01/07 14:23:36;;;;;;;11.75;6.03;;;;;;;;;;5052448;28;20048;-71
2022/01/07 14:26:02;;;;;;;8.00;4.82;;;;;;;;;;5052327;28;20041;-71
2022/01/07 14:28:29;;;;;;;7.40;5.45;;;;;;;;;;5051787;28;20875;-71
2022/01/07 14:30:55;;;;;;;10.60;5.63;;;;;;;;;;5052331;28;20032;-71
2022/01/07 14:33:21;;;;;;;6.95;4.97;;;;;;;;;;5052277;28;20044;-71
2022/01/07 14:35:47;;;;;;;9.18;5.85;;;;;;;;;;5051860;28;20024;-76
2022/01/07 14:38:17;;;;;;;12.32;6.38;;;;;;;;;;5051884;28;20124;-75
2022/01/07 14:40:43;;;;;;;11.27;5.55;;;;;;;;;;5051689;28;20025;-75
2022/01/07 14:43:10;;;;;;;10.05;5.75;;;;;;;;;;5039091;28;20737;-76
2022/01/07 14:45:36;;;;;;;6.70;5.75;;;;;;;;;;5051663;28;20509;-70
2022/01/07 14:48:02;;;;;;;8.00;6.03;;;;;;;;;;5046173;28;20056;-70
2022/01/07 14:50:29;;;;;;;9.40;6.07;;;;;;;;;;5044117;28;20025;-70
2022/01/07 14:52:55;;;;;;;9.15;5.85;;;;;;;;;;5047303;28;20037;-77
2022/01/07 14:55:24;;;;;;;8.43;5.28;;;;;;;;;;5039754;28;20044;-78
2022/01/07 14:57:50;;;;;;;10.63;5.45;;;;;;;;;;5040245;28;20030;-78
2022/01/07 15:00:18;;;;;;;10.05;5.93;;;;;;;;;;5039006;28;20029;-77
2022/01/07 15:02:45;;;;;;;8.20;5.90;;;;;;;;;;5039221;28;20506;-78
2022/01/07 15:05:11;;;;;;;12.80;6.25;;;;;;;;;;5039623;28;20075;-78
2022/01/07 15:07:38;;;;;;;10.73;7.30;;;;;;;;;;5041288;28;20060;-78
2022/01/07 15:10:05;;;;;;;16.30;9.30;;;;;;;;;;5040004;28;20022;-79